Silver Gate, MT (59081)

10:12 PM MDT on July 23, 2014 (GMT -0600)
Yellowstone (KP60) Elev 7835 ft | 44.54 °N, 110.42 °W | Change Station

Current weather conditions updated 16 minutes ago

Clear
Clear
56 °F
Feels Like 56 °F
N
4
Wind Variable Wind from NW
Gusts 18 mph

Tomorrow is forecast to be Much Cooler than today.

Today
High -- | Low -- °F
--% Chance of Precip.
Yesterday
High -- | Low -- °F
Precip. -- in
5:56 AM 8:58 PM
Waning Crescent, 7% visible
Pressure 30.04 in
Visibility -9999.0 miles
Clouds
Dew Point 42 °F
Humidity 60%
Rainfall 0.00 in
Snow Depth 0 in , 1 in , 1 in
UV Not available.
Pollen 6.10 out of 12
Air Quality Not available.
Flu Activity Not available.
METAR KP60 240356Z AUTO 31003KT 13/06 A3031 RMK AO1 SLP173 T01330056

More Conditions Fewer Conditions

Pressure 30.04 in
Visibility -9999.0 miles
Clouds
Dew Point 42 °F
Humidity 60%
Rainfall 0.00 in
Snow Depth 0 in , 1 in , 1 in
UV Not available.
Pollen 6.10 out of 12
Air Quality Not available.
Flu Activity Not available.
METAR KP60 240356Z AUTO 31003KT 13/06 A3031 RMK AO1 SLP173 T01330056

More Conditions Fewer Conditions

10-Day Weather Forecast

Almanac

Astronomy

Jul. 23, 2014 Rise Set
Actual Time 5:56 AM MDT 8:58 PM MDT
Civil Twilight 5:21 AM MDT 9:32 PM MDT
Nautical Twilight 4:36 AM MDT 10:17 PM MDT
Astronomical Twilight 3:42 AM MDT 11:11 PM MDT
Moon 3:18 AM MDT (7/23) 6:28 PM MDT (7/23)
Length of Visible Light 16h 11m
Length of Day
15h 01m
Tomorrow will be 2m 5s shorter.
Waning Crescent, 7% of the Moon is Illuminated
Jul 24
Waning Crescent
Jul 26
New
Aug 3
First Quarter
Aug 10
Full
Aug 17
Last Quarter

Today's Extremes

State Highs State Lows

Community

WunderPhotos

Upload Photos

1,736,897 photos uploaded!

Nearby

Snow Depth

Station Depth Elevation
Monument Peak 0 in 8850 ft
Northeast Entrance 1 in 7350 ft
White Mill 1 in 8700 ft
Lone Mountain 1 in 8880 ft
Porcupine 0 in 6500 ft

Earthquake Activity

City Distance Mag. Time & Date
Driggs, Idaho 100 miles 3.1 5:31 PM MDT
2014-07-17
Minimum magnitude displayed is 2.5.

Coastal Water Temperatures

Place Temperature
No Stations Reporting

Nearby Weather Stations

Station Location Temp. Heat Index Dew Point Humidity Wind Precip. Elev Updated Type
Old Cooke City, Montana, MT 59.0 °F - 45 °F 60% SE  at  1.1 mph - / hr 7566 ft 9:59 PM MDT Normal
HADS SODA BUTTE CREEK AT YELLOWSTONE WY, Cooke City, MT 63 °F - - - North  at  - 0.00 in / hr 7359 ft 8:45 PM MDT MADIS
HADS MAMMOTH AT YELLOWSTONE NP WY, Yellowstone National Park, WY 76 °F 77 °F 33 °F 21% SW  at  7 mph 0.00 in / hr 6298 ft 9:15 PM MDT MADIS
RAWS MAIN BOULDER MT, McLeod, MT 69 °F - 38 °F 32% SSE  at  2 mph 0.00 in / hr 5404 ft 8:39 PM MDT MADIS

Show More Stations Show Fewer Stations